Time;durP1;ratioP1;P1;durP2;ratioP2;P2;SDS_P1;SDS_P2;PMS_P1;PMS_P2;Temp;Humidity;BMP_temperature;BMP_pressure;BME280_temperature;BME280_humidity;BME280_pressure;Samples;Min_cycle;Max_cycle;Signal;HPM_P1;HPM_P2
2021/08/29 00:00:12;;;;;;;8.73;3.92;;;;;;;;;;5075452;28;20497;-74
2021/08/29 00:02:38;;;;;;;9.48;4.70;;;;;;;;;;5075425;28;20099;-74
2021/08/29 00:05:05;;;;;;;7.97;4.57;;;;;;;;;;5075617;28;20025;-73
2021/08/29 00:07:31;;;;;;;7.47;4.47;;;;;;;;;;5075589;28;20481;-74
2021/08/29 00:09:57;;;;;;;10.48;4.97;;;;;;;;;;5075529;28;20395;-73
2021/08/29 00:12:23;;;;;;;14.50;4.60;;;;;;;;;;5075166;28;20507;-73
2021/08/29 00:14:49;;;;;;;10.55;5.03;;;;;;;;;;5075058;28;20024;-73
2021/08/29 00:17:15;;;;;;;11.00;4.90;;;;;;;;;;5075401;28;20039;-73
2021/08/29 00:19:41;;;;;;;12.48;5.55;;;;;;;;;;5075416;28;20032;-73
2021/08/29 00:22:07;;;;;;;10.23;4.72;;;;;;;;;;5075306;28;20100;-73
2021/08/29 00:24:33;;;;;;;9.88;4.85;;;;;;;;;;5075018;28;20028;-73
2021/08/29 00:26:59;;;;;;;10.85;5.35;;;;;;;;;;5075206;28;20027;-73
2021/08/29 00:29:25;;;;;;;18.88;5.50;;;;;;;;;;5075150;28;20032;-74
2021/08/29 00:31:51;;;;;;;12.43;5.63;;;;;;;;;;5074753;28;20029;-74
2021/08/29 00:34:17;;;;;;;11.05;4.70;;;;;;;;;;5075021;28;20113;-74
2021/08/29 00:36:43;;;;;;;10.95;4.80;;;;;;;;;;5074769;28;20020;-73
2021/08/29 00:39:09;;;;;;;11.02;5.03;;;;;;;;;;5074760;28;20031;-74
2021/08/29 00:41:37;;;;;;;9.05;4.50;;;;;;;;;;5056728;28;20218;-73
2021/08/29 00:44:03;;;;;;;9.57;4.55;;;;;;;;;;5056717;28;20481;-73
2021/08/29 00:46:29;;;;;;;12.32;3.92;;;;;;;;;;5074596;28;20048;-74
2021/08/29 00:48:56;;;;;;;8.30;3.88;;;;;;;;;;5074790;28;20063;-74
2021/08/29 00:51:22;;;;;;;8.32;3.97;;;;;;;;;;5074476;28;20021;-74
2021/08/29 00:53:49;;;;;;;8.77;4.50;;;;;;;;;;5074362;28;20112;-72
2021/08/29 00:56:16;;;;;;;9.27;4.53;;;;;;;;;;5073645;28;20021;-74
2021/08/29 00:58:43;;;;;;;6.85;3.35;;;;;;;;;;5074276;28;20031;-73
2021/08/29 01:01:09;;;;;;;7.75;4.00;;;;;;;;;;5056362;28;20070;-73
2021/08/29 01:03:36;;;;;;;8.38;3.85;;;;;;;;;;5074471;28;20025;-73
2021/08/29 01:06:02;;;;;;;9.70;4.60;;;;;;;;;;5074454;28;20025;-72
2021/08/29 01:08:31;;;;;;;12.65;5.75;;;;;;;;;;5074089;28;20362;-74
2021/08/29 01:10:59;;;;;;;11.50;5.72;;;;;;;;;;5074901;28;20461;-73
2021/08/29 01:13:34;;;;;;;11.00;5.65;;;;;;;;;;5073947;28;20031;-72
2021/08/29 01:16:03;;;;;;;11.15;6.45;;;;;;;;;;5074187;28;20150;-73
2021/08/29 01:18:30;;;;;;;10.95;5.38;;;;;;;;;;5073723;28;20049;-73
2021/08/29 01:21:02;;;;;;;11.15;6.55;;;;;;;;;;5074119;28;20024;-73
2021/08/29 01:23:29;;;;;;;12.13;6.40;;;;;;;;;;5074056;28;20029;-73
2021/08/29 01:26:00;;;;;;;11.07;6.18;;;;;;;;;;5073762;28;20032;-74
2021/08/29 01:28:45;;;;;;;14.32;6.45;;;;;;;;;;5074225;28;20090;-72
2021/08/29 01:31:11;;;;;;;13.23;7.05;;;;;;;;;;5074241;28;20024;-73
2021/08/29 01:33:37;;;;;;;11.57;6.40;;;;;;;;;;5073584;28;20392;-73
2021/08/29 01:36:04;;;;;;;10.63;5.78;;;;;;;;;;5073619;28;20020;-72
2021/08/29 01:38:30;;;;;;;12.02;6.20;;;;;;;;;;5073594;28;20025;-74
2021/08/29 01:40:56;;;;;;;17.55;6.88;;;;;;;;;;5073771;28;20025;-73
2021/08/29 01:43:22;;;;;;;13.95;6.57;;;;;;;;;;5055604;28;20024;-73
2021/08/29 01:45:48;;;;;;;14.75;6.68;;;;;;;;;;5073511;28;20515;-73
2021/08/29 01:48:14;;;;;;;11.98;5.97;;;;;;;;;;5073511;28;20162;-73
2021/08/29 01:50:41;;;;;;;15.77;6.30;;;;;;;;;;5073422;28;20104;-72
2021/08/29 01:53:07;;;;;;;10.48;6.57;;;;;;;;;;5073306;28;20492;-73
2021/08/29 01:55:33;;;;;;;12.15;6.00;;;;;;;;;;5073391;28;20020;-74
2021/08/29 01:57:59;;;;;;;11.73;6.25;;;;;;;;;;5073579;28;20021;-72
2021/08/29 02:00:25;;;;;;;13.13;6.53;;;;;;;;;;5073324;28;20477;-73
2021/08/29 02:02:51;;;;;;;15.90;7.18;;;;;;;;;;5073294;28;20107;-72
2021/08/29 02:05:17;;;;;;;13.45;6.75;;;;;;;;;;5073286;28;20101;-72
2021/08/29 02:07:47;;;;;;;14.60;6.82;;;;;;;;;;5073222;28;20033;-73
2021/08/29 02:10:15;;;;;;;16.73;7.45;;;;;;;;;;5073269;28;20520;-74
2021/08/29 02:12:46;;;;;;;11.80;6.35;;;;;;;;;;5073384;28;20127;-73
2021/08/29 02:15:17;;;;;;;16.67;7.40;;;;;;;;;;5055147;28;20040;-73
2021/08/29 02:17:43;;;;;;;13.30;6.43;;;;;;;;;;5073190;28;20119;-73
2021/08/29 02:20:12;;;;;;;12.65;6.85;;;;;;;;;;5055102;28;20049;-73
2021/08/29 02:22:38;;;;;;;14.43;6.57;;;;;;;;;;5073082;28;20027;-74
2021/08/29 02:25:05;;;;;;;12.90;6.47;;;;;;;;;;5073332;28;20020;-73
2021/08/29 02:27:32;;;;;;;14.07;7.53;;;;;;;;;;5073054;28;20027;-74
2021/08/29 02:30:00;;;;;;;11.15;6.57;;;;;;;;;;5073357;28;20024;-73
2021/08/29 02:32:26;;;;;;;12.85;6.68;;;;;;;;;;5073247;28;20043;-73
2021/08/29 02:34:52;;;;;;;15.15;7.03;;;;;;;;;;5073006;28;20021;-74
2021/08/29 02:37:19;;;;;;;10.82;6.15;;;;;;;;;;5073238;28;20025;-73
2021/08/29 02:39:45;;;;;;;10.48;6.00;;;;;;;;;;5072981;28;20156;-73
2021/08/29 02:42:11;;;;;;;9.25;5.72;;;;;;;;;;5072939;28;20028;-74
2021/08/29 02:44:38;;;;;;;12.27;6.60;;;;;;;;;;5073158;28;20028;-73
2021/08/29 02:47:05;;;;;;;12.18;6.57;;;;;;;;;;5073415;28;20036;-73
2021/08/29 02:49:32;;;;;;;11.98;6.40;;;;;;;;;;5072850;28;20032;-73
2021/08/29 02:51:58;;;;;;;12.35;6.45;;;;;;;;;;5073014;28;20465;-73
2021/08/29 02:54:27;;;;;;;11.48;6.60;;;;;;;;;;5072791;28;20024;-73
2021/08/29 02:56:55;;;;;;;12.55;6.28;;;;;;;;;;5073371;28;20074;-73
2021/08/29 02:59:21;;;;;;;10.13;6.10;;;;;;;;;;5072760;28;20103;-73
2021/08/29 03:01:47;;;;;;;13.80;6.80;;;;;;;;;;5073010;28;20480;-73
2021/08/29 03:04:13;;;;;;;11.23;5.97;;;;;;;;;;5072997;28;20472;-73
2021/08/29 03:06:39;;;;;;;11.45;6.50;;;;;;;;;;5072946;28;20025;-73
2021/08/29 03:09:06;;;;;;;15.23;6.55;;;;;;;;;;5073214;28;20461;-73
2021/08/29 03:11:32;;;;;;;13.25;6.75;;;;;;;;;;5072562;28;20029;-73
2021/08/29 03:13:59;;;;;;;11.27;6.45;;;;;;;;;;5054596;28;20020;-73
2021/08/29 03:16:25;;;;;;;10.40;6.15;;;;;;;;;;5072565;28;20029;-73
2021/08/29 03:18:51;;;;;;;9.40;6.18;;;;;;;;;;5072816;28;20076;-73
2021/08/29 03:21:17;;;;;;;9.93;5.55;;;;;;;;;;5076195;28;20117;-73
2021/08/29 03:23:43;;;;;;;12.43;7.38;;;;;;;;;;5076666;28;20032;-73
2021/08/29 03:26:10;;;;;;;9.00;6.07;;;;;;;;;;5076615;28;20028;-73
2021/08/29 03:28:36;;;;;;;12.35;6.50;;;;;;;;;;5076582;28;20301;-74
2021/08/29 03:31:04;;;;;;;9.73;5.55;;;;;;;;;;5076007;28;20078;-74
2021/08/29 03:33:30;;;;;;;11.35;5.63;;;;;;;;;;5075889;28;20025;-74
2021/08/29 03:35:56;;;;;;;9.05;5.22;;;;;;;;;;5075897;28;20469;-74
2021/08/29 03:38:23;;;;;;;9.25;5.13;;;;;;;;;;5057893;28;20028;-74
2021/08/29 03:40:50;;;;;;;10.38;5.43;;;;;;;;;;5076136;28;20028;-73
2021/08/29 03:43:16;;;;;;;11.15;4.80;;;;;;;;;;5057787;28;20489;-73
2021/08/29 03:45:43;;;;;;;8.18;4.40;;;;;;;;;;5076021;28;20431;-72
2021/08/29 03:48:09;;;;;;;9.55;5.03;;;;;;;;;;5075725;28;20027;-73
2021/08/29 03:50:35;;;;;;;9.98;5.43;;;;;;;;;;5075704;28;20021;-74
2021/08/29 03:53:02;;;;;;;8.88;5.03;;;;;;;;;;5075851;28;20052;-74
2021/08/29 03:55:28;;;;;;;10.55;5.53;;;;;;;;;;5075883;28;20475;-73
2021/08/29 03:57:55;;;;;;;6.72;4.70;;;;;;;;;;5075546;28;20044;-74
2021/08/29 04:00:21;;;;;;;8.02;5.07;;;;;;;;;;5075762;28;20021;-73
2021/08/29 04:02:47;;;;;;;8.73;5.78;;;;;;;;;;5075697;28;20484;-74
2021/08/29 04:05:14;;;;;;;9.10;5.43;;;;;;;;;;5075652;28;20465;-73
2021/08/29 04:07:40;;;;;;;7.47;4.85;;;;;;;;;;5075309;28;20031;-73
2021/08/29 04:10:06;;;;;;;8.10;5.00;;;;;;;;;;5075333;28;20028;-73
2021/08/29 04:12:33;;;;;;;8.35;4.93;;;;;;;;;;5075724;28;20085;-73
2021/08/29 04:14:59;;;;;;;6.97;4.63;;;;;;;;;;5075399;28;20095;-74
2021/08/29 04:17:25;;;;;;;7.97;4.50;;;;;;;;;;5074900;28;20016;-74
2021/08/29 04:19:52;;;;;;;6.63;4.35;;;;;;;;;;5075715;28;20032;-74
2021/08/29 04:22:18;;;;;;;8.00;5.00;;;;;;;;;;5075371;28;20063;-73
2021/08/29 04:24:44;;;;;;;6.35;4.13;;;;;;;;;;5075320;28;20027;-73
2021/08/29 04:27:11;;;;;;;8.50;4.90;;;;;;;;;;5074994;28;20021;-73
2021/08/29 04:29:37;;;;;;;7.72;4.55;;;;;;;;;;5075186;28;20033;-72
2021/08/29 04:32:03;;;;;;;6.60;4.38;;;;;;;;;;5073986;28;20037;-73
2021/08/29 04:34:29;;;;;;;6.60;4.63;;;;;;;;;;5056873;28;20017;-74
2021/08/29 04:36:55;;;;;;;6.28;4.40;;;;;;;;;;5075037;28;20153;-73
2021/08/29 04:39:21;;;;;;;6.93;4.63;;;;;;;;;;5075024;28;20377;-74
2021/08/29 04:41:47;;;;;;;7.20;4.38;;;;;;;;;;5074631;28;20392;-73
2021/08/29 04:44:13;;;;;;;6.53;4.22;;;;;;;;;;5074599;28;20108;-73
2021/08/29 04:46:40;;;;;;;6.72;4.10;;;;;;;;;;5074536;28;20108;-73
2021/08/29 04:49:06;;;;;;;8.07;5.28;;;;;;;;;;5074524;28;20074;-73
2021/08/29 04:51:32;;;;;;;7.85;4.68;;;;;;;;;;5074473;28;20025;-73
2021/08/29 04:53:58;;;;;;;9.27;5.18;;;;;;;;;;5074366;28;20111;-73
2021/08/29 04:56:24;;;;;;;10.48;5.55;;;;;;;;;;5074387;28;20063;-73
2021/08/29 04:58:51;;;;;;;8.23;5.10;;;;;;;;;;5074299;28;20469;-74
2021/08/29 05:01:17;;;;;;;7.82;4.60;;;;;;;;;;5074273;28;20028;-73
2021/08/29 05:03:43;;;;;;;8.98;4.95;;;;;;;;;;5074237;28;20032;-74
2021/08/29 05:06:09;;;;;;;7.47;4.38;;;;;;;;;;5074180;28;20078;-73
2021/08/29 05:08:35;;;;;;;7.43;4.53;;;;;;;;;;5074111;28;20115;-72
2021/08/29 05:11:02;;;;;;;7.57;4.43;;;;;;;;;;5074356;28;20060;-73
2021/08/29 05:13:28;;;;;;;8.13;4.18;;;;;;;;;;5073951;28;20031;-73
2021/08/29 05:15:55;;;;;;;5.20;3.38;;;;;;;;;;5074079;28;20099;-72
2021/08/29 05:18:21;;;;;;;6.30;3.53;;;;;;;;;;5074055;28;20044;-73
2021/08/29 05:20:47;;;;;;;4.88;3.40;;;;;;;;;;5073891;28;20045;-73
2021/08/29 05:23:13;;;;;;;5.90;3.50;;;;;;;;;;5073817;28;20029;-73
2021/08/29 05:25:39;;;;;;;7.40;4.10;;;;;;;;;;5074055;28;20118;-73
2021/08/29 05:28:06;;;;;;;5.45;3.15;;;;;;;;;;5074054;28;20568;-74
2021/08/29 05:30:32;;;;;;;4.25;3.25;;;;;;;;;;5055770;28;20028;-73
2021/08/29 05:32:58;;;;;;;5.60;4.03;;;;;;;;;;5073893;28;20386;-73
2021/08/29 05:35:24;;;;;;;5.63;3.78;;;;;;;;;;5073664;28;20078;-73
2021/08/29 05:37:50;;;;;;;4.55;3.38;;;;;;;;;;5055617;28;20017;-73
2021/08/29 05:40:16;;;;;;;4.80;3.30;;;;;;;;;;5073611;28;20394;-73
2021/08/29 05:42:42;;;;;;;5.53;3.63;;;;;;;;;;5073234;28;20028;-73
2021/08/29 05:45:08;;;;;;;5.97;3.70;;;;;;;;;;5073790;28;20081;-74
2021/08/29 05:47:34;;;;;;;4.70;3.40;;;;;;;;;;5073999;28;20024;-74
2021/08/29 05:50:00;;;;;;;6.18;3.83;;;;;;;;;;5073471;28;20035;-73
2021/08/29 05:52:26;;;;;;;6.43;4.28;;;;;;;;;;5073631;28;20028;-73
2021/08/29 05:54:52;;;;;;;6.38;4.10;;;;;;;;;;5073405;28;20491;-72
2021/08/29 05:57:18;;;;;;;6.03;4.10;;;;;;;;;;5073665;28;20070;-73
2021/08/29 05:59:44;;;;;;;6.45;3.92;;;;;;;;;;5073360;28;20062;-73
2021/08/29 06:02:10;;;;;;;8.50;4.55;;;;;;;;;;5055305;28;20119;-73
2021/08/29 06:04:36;;;;;;;7.38;4.80;;;;;;;;;;5073552;28;20033;-73
2021/08/29 06:07:03;;;;;;;8.80;4.47;;;;;;;;;;5073568;28;20029;-72
2021/08/29 06:09:29;;;;;;;6.70;4.43;;;;;;;;;;5073262;28;20122;-73
2021/08/29 06:11:55;;;;;;;7.03;4.00;;;;;;;;;;5055200;28;20063;-73
2021/08/29 06:14:21;;;;;;;5.65;4.07;;;;;;;;;;5073211;28;20504;-73
2021/08/29 06:16:47;;;;;;;6.53;4.43;;;;;;;;;;5073197;28;20043;-72
2021/08/29 06:19:14;;;;;;;5.47;3.80;;;;;;;;;;5072752;28;20492;-73
2021/08/29 06:21:40;;;;;;;6.13;3.80;;;;;;;;;;5073205;28;20016;-73
2021/08/29 06:24:06;;;;;;;5.68;4.00;;;;;;;;;;5073154;28;20388;-73
2021/08/29 06:26:32;;;;;;;6.05;4.05;;;;;;;;;;5073082;28;20077;-73
2021/08/29 06:28:58;;;;;;;6.63;4.18;;;;;;;;;;5073071;28;20411;-73
2021/08/29 06:31:24;;;;;;;7.72;4.60;;;;;;;;;;5074028;28;20070;-72
2021/08/29 06:33:50;;;;;;;6.25;4.18;;;;;;;;;;5073197;28;20033;-74
2021/08/29 06:36:16;;;;;;;6.90;4.32;;;;;;;;;;5073467;28;20070;-73
2021/08/29 06:38:42;;;;;;;7.03;4.00;;;;;;;;;;5073672;28;20486;-73
2021/08/29 06:41:09;;;;;;;6.55;4.07;;;;;;;;;;5073663;28;20021;-74
2021/08/29 06:43:35;;;;;;;6.80;4.43;;;;;;;;;;5074687;28;20035;-73
2021/08/29 06:46:01;;;;;;;8.27;3.72;;;;;;;;;;5073731;28;20120;-74
2021/08/29 06:48:27;;;;;;;8.95;4.40;;;;;;;;;;5073095;28;20059;-72
2021/08/29 06:50:53;;;;;;;7.88;3.92;;;;;;;;;;5073053;28;20101;-74
2021/08/29 06:53:19;;;;;;;6.65;4.30;;;;;;;;;;5072957;28;20031;-73
2021/08/29 06:55:45;;;;;;;5.10;3.72;;;;;;;;;;5076515;28;20021;-73
2021/08/29 06:58:11;;;;;;;6.65;4.30;;;;;;;;;;5077050;28;20431;-74
2021/08/29 07:00:37;;;;;;;6.70;4.05;;;;;;;;;;5076824;28;20021;-73
2021/08/29 07:03:03;;;;;;;6.38;3.65;;;;;;;;;;5077167;28;20032;-73
2021/08/29 07:05:29;;;;;;;7.45;4.65;;;;;;;;;;5076709;28;20481;-73
2021/08/29 07:07:55;;;;;;;6.28;3.80;;;;;;;;;;5077689;28;20029;-74
2021/08/29 07:10:21;;;;;;;7.25;4.13;;;;;;;;;;5076853;28;20021;-73
2021/08/29 07:12:47;;;;;;;6.68;4.15;;;;;;;;;;5076443;28;20115;-74
2021/08/29 07:15:13;;;;;;;7.75;4.20;;;;;;;;;;5076776;28;20044;-74
2021/08/29 07:17:39;;;;;;;7.85;4.18;;;;;;;;;;5076053;28;20123;-74
2021/08/29 07:20:05;;;;;;;9.73;5.10;;;;;;;;;;5076731;28;20025;-73
2021/08/29 07:22:31;;;;;;;9.23;4.40;;;;;;;;;;5059163;28;20077;-73
2021/08/29 07:24:57;;;;;;;9.30;4.35;;;;;;;;;;5076557;28;20028;-73
2021/08/29 07:27:23;;;;;;;7.28;4.30;;;;;;;;;;5076214;28;20495;-73
2021/08/29 07:29:49;;;;;;;13.13;4.28;;;;;;;;;;5076336;28;20051;-74
2021/08/29 07:32:15;;;;;;;7.30;3.83;;;;;;;;;;5076361;28;20122;-74
2021/08/29 07:34:41;;;;;;;10.70;4.97;;;;;;;;;;5075954;28;20594;-74
2021/08/29 07:37:07;;;;;;;12.10;4.97;;;;;;;;;;5076206;28;20025;-73
2021/08/29 07:39:33;;;;;;;10.88;4.28;;;;;;;;;;5075876;28;20485;-73
2021/08/29 07:41:59;;;;;;;9.32;4.40;;;;;;;;;;5075928;28;20076;-73
2021/08/29 07:44:25;;;;;;;9.82;4.63;;;;;;;;;;5075794;28;20097;-73
2021/08/29 07:46:51;;;;;;;10.60;4.45;;;;;;;;;;5075753;28;20029;-73
2021/08/29 07:49:17;;;;;;;10.90;3.97;;;;;;;;;;5057637;28;20021;-75
2021/08/29 07:51:43;;;;;;;11.50;4.53;;;;;;;;;;5075497;28;20024;-73
2021/08/29 07:54:09;;;;;;;11.35;3.78;;;;;;;;;;5075581;28;20025;-73
2021/08/29 07:56:35;;;;;;;8.77;3.60;;;;;;;;;;5075837;28;20021;-74
2021/08/29 07:59:01;;;;;;;11.90;4.82;;;;;;;;;;5075511;28;20388;-74
2021/08/29 08:01:27;;;;;;;11.85;4.70;;;;;;;;;;5075541;28;20033;-74
2021/08/29 08:03:53;;;;;;;13.05;4.15;;;;;;;;;;5075540;28;20021;-74
2021/08/29 08:06:19;;;;;;;12.73;3.80;;;;;;;;;;5075302;28;20455;-74
2021/08/29 08:08:45;;;;;;;8.68;3.33;;;;;;;;;;5057491;28;20062;-74
2021/08/29 08:11:11;;;;;;;11.48;4.00;;;;;;;;;;5075369;28;20021;-74
2021/08/29 08:13:37;;;;;;;8.82;3.95;;;;;;;;;;5075600;28;20020;-72
2021/08/29 08:16:03;;;;;;;8.98;3.60;;;;;;;;;;5075569;28;20380;-74
2021/08/29 08:18:29;;;;;;;10.38;3.65;;;;;;;;;;5075436;28;20044;-74
2021/08/29 08:20:57;;;;;;;10.65;3.35;;;;;;;;;;5075573;28;20067;-73
2021/08/29 08:23:23;;;;;;;8.93;3.45;;;;;;;;;;5057264;28;20047;-73
2021/08/29 08:25:50;;;;;;;8.15;3.25;;;;;;;;;;5075631;28;20024;-73
2021/08/29 08:28:16;;;;;;;11.55;3.78;;;;;;;;;;5075590;28;20112;-73
2021/08/29 08:30:42;;;;;;;9.70;3.40;;;;;;;;;;5075434;28;20059;-74
2021/08/29 08:33:08;;;;;;;10.50;3.42;;;;;;;;;;5074807;28;20052;-74
2021/08/29 08:35:34;;;;;;;8.35;3.53;;;;;;;;;;5075243;28;20528;-74
2021/08/29 08:38:00;;;;;;;7.50;2.92;;;;;;;;;;5074805;28;20025;-73
2021/08/29 08:40:26;;;;;;;7.90;2.95;;;;;;;;;;5074707;28;20029;-74
2021/08/29 08:42:52;;;;;;;7.60;2.85;;;;;;;;;;5074742;28;20020;-74
2021/08/29 08:45:18;;;;;;;7.68;3.38;;;;;;;;;;5074717;28;20465;-75
2021/08/29 08:47:45;;;;;;;9.45;3.40;;;;;;;;;;5056727;28;20028;-74
2021/08/29 08:50:12;;;;;;;10.20;3.03;;;;;;;;;;5075160;28;20528;-74
2021/08/29 08:52:39;;;;;;;8.65;2.90;;;;;;;;;;5074370;28;20074;-74
2021/08/29 08:55:06;;;;;;;8.38;3.33;;;;;;;;;;5074601;28;20032;-74
2021/08/29 08:57:32;;;;;;;6.68;2.88;;;;;;;;;;5074281;28;20024;-74
2021/08/29 08:59:58;;;;;;;9.77;3.30;;;;;;;;;;5074487;28;20095;-74
2021/08/29 09:02:24;;;;;;;7.63;3.30;;;;;;;;;;5074305;28;20034;-74
2021/08/29 09:04:51;;;;;;;6.15;2.85;;;;;;;;;;5075959;28;20024;-73
2021/08/29 09:07:17;;;;;;;6.45;2.60;;;;;;;;;;5075979;28;20036;-73
2021/08/29 09:09:43;;;;;;;6.85;2.90;;;;;;;;;;5074888;28;20039;-74
2021/08/29 09:12:09;;;;;;;10.23;3.35;;;;;;;;;;5074361;28;20107;-74
2021/08/29 09:14:38;;;;;;;10.40;2.97;;;;;;;;;;5056113;28;20020;-74
2021/08/29 09:17:20;;;;;;;8.55;2.80;;;;;;;;;;5074039;28;20020;-74
2021/08/29 09:19:46;;;;;;;8.68;2.70;;;;;;;;;;5073772;28;20110;-74
2021/08/29 09:22:14;;;;;;;6.07;2.47;;;;;;;;;;5074525;28;20046;-73
2021/08/29 09:24:48;;;;;;;5.38;2.60;;;;;;;;;;5074262;28;20020;-74
2021/08/29 09:27:14;;;;;;;8.15;3.30;;;;;;;;;;5073961;28;20066;-73
2021/08/29 09:29:41;;;;;;;7.32;3.50;;;;;;;;;;5073779;28;20016;-73
2021/08/29 09:32:07;;;;;;;8.82;2.50;;;;;;;;;;5074581;28;20035;-74
2021/08/29 09:34:33;;;;;;;8.35;2.80;;;;;;;;;;5073896;28;20562;-74
2021/08/29 09:37:02;;;;;;;7.47;2.78;;;;;;;;;;5073923;28;20024;-73
2021/08/29 09:39:28;;;;;;;7.85;2.45;;;;;;;;;;5074427;28;20027;-74
2021/08/29 09:42:04;;;;;;;8.55;3.10;;;;;;;;;;5074028;28;20100;-74
2021/08/29 09:44:34;;;;;;;9.93;3.08;;;;;;;;;;5074070;28;20100;-74
2021/08/29 09:47:02;;;;;;;6.07;2.25;;;;;;;;;;5074038;28;20047;-73
2021/08/29 09:49:30;;;;;;;6.35;2.65;;;;;;;;;;5073774;28;20028;-73
2021/08/29 09:51:57;;;;;;;7.50;2.70;;;;;;;;;;5074151;28;20074;-73
2021/08/29 09:54:27;;;;;;;7.60;2.47;;;;;;;;;;5073937;28;20017;-73
2021/08/29 09:56:53;;;;;;;6.93;2.42;;;;;;;;;;5073823;28;20100;-74
2021/08/29 09:59:38;;;;;;;6.50;2.65;;;;;;;;;;5073958;28;20021;-74
2021/08/29 10:02:05;;;;;;;6.40;2.80;;;;;;;;;;5073824;28;20043;-74
2021/08/29 10:04:31;;;;;;;6.20;2.28;;;;;;;;;;5073820;28;20025;-74
2021/08/29 10:07:09;;;;;;;5.95;2.42;;;;;;;;;;5074003;28;20030;-74
2021/08/29 10:09:35;;;;;;;7.35;2.35;;;;;;;;;;5074065;28;20028;-74
2021/08/29 10:12:02;;;;;;;5.45;2.40;;;;;;;;;;5074215;28;20435;-74
2021/08/29 10:14:29;;;;;;;5.43;2.30;;;;;;;;;;5073931;28;20361;-74
2021/08/29 10:16:56;;;;;;;5.85;2.20;;;;;;;;;;5073560;28;20029;-74
2021/08/29 10:19:22;;;;;;;5.38;2.60;;;;;;;;;;5073387;28;20044;-74
2021/08/29 10:21:48;;;;;;;6.45;2.50;;;;;;;;;;5073577;28;20071;-74
2021/08/29 10:24:15;;;;;;;5.68;2.53;;;;;;;;;;5073786;28;20095;-74
2021/08/29 10:26:41;;;;;;;5.80;2.42;;;;;;;;;;5073972;28;20028;-74
2021/08/29 10:29:12;;;;;;;5.85;2.28;;;;;;;;;;5074024;28;20027;-73
2021/08/29 10:31:49;;;;;;;4.07;2.20;;;;;;;;;;5077478;28;20439;-74
2021/08/29 10:34:16;;;;;;;4.68;2.33;;;;;;;;;;5077473;28;20104;-73
2021/08/29 10:36:43;;;;;;;4.00;2.30;;;;;;;;;;5077238;28;20052;-73
2021/08/29 10:39:10;;;;;;;6.28;2.60;;;;;;;;;;5077674;28;20024;-73
2021/08/29 10:41:37;;;;;;;5.65;2.15;;;;;;;;;;5059120;28;20530;-74
2021/08/29 10:44:03;;;;;;;7.50;2.17;;;;;;;;;;5077266;28;20024;-75
2021/08/29 10:46:30;;;;;;;6.15;2.63;;;;;;;;;;5077382;28;20388;-74
2021/08/29 10:48:56;;;;;;;7.60;2.72;;;;;;;;;;5077216;28;20024;-74
2021/08/29 10:51:26;;;;;;;5.00;2.13;;;;;;;;;;5077113;28;20119;-73
2021/08/29 10:53:52;;;;;;;;;;;;;;;;;;5059168;28;20029;-74
2021/08/29 10:56:18;;;;;;;5.50;2.28;;;;;;;;;;5075511;28;19911;-74
2021/08/29 10:58:45;;;;;;;6.65;2.30;;;;;;;;;;5076966;28;20025;-73
2021/08/29 11:01:29;;;;;;;9.10;2.53;;;;;;;;;;5076629;28;20096;-74
2021/08/29 11:03:55;;;;;;;5.55;2.55;;;;;;;;;;5077126;28;20040;-73
2021/08/29 11:06:40;;;;;;;9.77;2.92;;;;;;;;;;5077087;28;20028;-73
2021/08/29 11:09:24;;;;;;;6.00;2.60;;;;;;;;;;5076509;28;20035;-74
2021/08/29 11:11:50;;;;;;;8.75;2.72;;;;;;;;;;5076901;28;20070;-73
2021/08/29 11:14:35;;;;;;;6.68;2.83;;;;;;;;;;5076669;28;20025;-74
2021/08/29 11:17:14;;;;;;;7.80;2.50;;;;;;;;;;5076463;28;20099;-73
2021/08/29 11:19:41;;;;;;;5.72;2.30;;;;;;;;;;5075822;28;20127;-74
2021/08/29 11:22:07;;;;;;;6.57;2.80;;;;;;;;;;5076236;28;20021;-73
2021/08/29 11:24:59;;;;;;;5.53;2.45;;;;;;;;;;5076298;28;20025;-73
2021/08/29 11:27:38;;;;;;;4.90;2.22;;;;;;;;;;5052972;28;20028;-73
2021/08/29 11:30:14;;;;;;;6.40;2.30;;;;;;;;;;5076156;28;20066;-73
2021/08/29 11:33:00;;;;;;;6.68;2.58;;;;;;;;;;5076259;28;20056;-74
2021/08/29 11:35:27;;;;;;;5.68;2.38;;;;;;;;;;5076126;28;20024;-74
2021/08/29 11:38:05;;;;;;;7.07;2.55;;;;;;;;;;5075961;28;20020;-73
2021/08/29 11:40:49;;;;;;;7.28;2.97;;;;;;;;;;5075624;28;20025;-74
2021/08/29 11:43:27;;;;;;;6.25;2.28;;;;;;;;;;5075873;28;20427;-73
2021/08/29 11:45:57;;;;;;;8.40;2.90;;;;;;;;;;5075785;28;20013;-73
2021/08/29 11:48:27;;;;;;;7.80;2.43;;;;;;;;;;5057931;28;20029;-73
2021/08/29 11:50:54;;;;;;;5.22;2.10;;;;;;;;;;5076006;28;20251;-74
2021/08/29 11:53:20;;;;;;;5.25;2.10;;;;;;;;;;5057630;28;20034;-75
2021/08/29 11:55:46;;;;;;;7.72;2.50;;;;;;;;;;5075637;28;20432;-74
2021/08/29 11:58:19;;;;;;;6.30;2.47;;;;;;;;;;5075627;28;20020;-73
2021/08/29 12:00:46;;;;;;;6.72;3.08;;;;;;;;;;5075879;28;20380;-73
2021/08/29 12:03:12;;;;;;;4.93;2.05;;;;;;;;;;5075751;28;20027;-73
2021/08/29 12:05:49;;;;;;;5.97;2.40;;;;;;;;;;5075719;28;20029;-73
2021/08/29 12:08:16;;;;;;;5.50;2.35;;;;;;;;;;5075994;28;20415;-73
2021/08/29 12:10:45;;;;;;;4.50;2.28;;;;;;;;;;5075629;28;20421;-74
2021/08/29 12:13:11;;;;;;;7.47;2.60;;;;;;;;;;5057228;28;20021;-73
2021/08/29 12:15:37;;;;;;;5.45;2.40;;;;;;;;;;5057239;28;20027;-73
2021/08/29 12:18:06;;;;;;;4.50;2.08;;;;;;;;;;5072844;28;20492;-73
2021/08/29 12:20:32;;;;;;;5.15;2.15;;;;;;;;;;5075742;28;20032;-73
2021/08/29 12:23:02;;;;;;;7.70;2.72;;;;;;;;;;5075126;28;20027;-74
2021/08/29 12:25:28;;;;;;;3.42;2.05;;;;;;;;;;5075047;28;20025;-73
2021/08/29 12:28:05;;;;;;;4.72;2.40;;;;;;;;;;5075273;28;20507;-73
2021/08/29 12:30:31;;;;;;;4.35;2.10;;;;;;;;;;5075272;28;20032;-75
2021/08/29 12:33:07;;;;;;;4.43;2.40;;;;;;;;;;5075114;28;20036;-73
2021/08/29 12:35:33;;;;;;;4.53;2.03;;;;;;;;;;5074910;28;20027;-73
2021/08/29 12:37:59;;;;;;;6.72;1.95;;;;;;;;;;5075069;28;20032;-74
2021/08/29 12:40:27;;;;;;;5.10;2.60;;;;;;;;;;5075052;28;20104;-73
2021/08/29 12:42:56;;;;;;;5.97;2.17;;;;;;;;;;5074985;28;20021;-73
2021/08/29 12:45:22;;;;;;;6.13;1.90;;;;;;;;;;5074619;28;20044;-74
2021/08/29 12:47:48;;;;;;;3.38;1.70;;;;;;;;;;5074494;28;20060;-74
2021/08/29 12:50:18;;;;;;;5.75;2.17;;;;;;;;;;5074700;28;20074;-74
2021/08/29 12:52:45;;;;;;;5.88;2.17;;;;;;;;;;5073475;28;20021;-74
2021/08/29 12:55:19;;;;;;;6.60;2.58;;;;;;;;;;5074731;28;20036;-73
2021/08/29 12:57:45;;;;;;;6.13;2.17;;;;;;;;;;5075046;28;20096;-74
2021/08/29 13:00:12;;;;;;;3.75;1.83;;;;;;;;;;5074406;28;20486;-74
2021/08/29 13:02:39;;;;;;;4.68;2.05;;;;;;;;;;5074746;28;20024;-74
2021/08/29 13:05:06;;;;;;;4.07;1.67;;;;;;;;;;5074246;28;20081;-73
2021/08/29 13:07:46;;;;;;;4.55;1.83;;;;;;;;;;5074190;28;20021;-73
2021/08/29 13:10:13;;;;;;;4.35;1.98;;;;;;;;;;5074472;28;20036;-73
2021/08/29 13:12:40;;;;;;;5.75;2.00;;;;;;;;;;5074234;28;20028;-74
2021/08/29 13:15:06;;;;;;;4.78;1.90;;;;;;;;;;5074121;28;20090;-74
2021/08/29 13:17:32;;;;;;;6.32;2.33;;;;;;;;;;5074375;28;20473;-73
2021/08/29 13:20:04;;;;;;;5.30;2.10;;;;;;;;;;5073501;28;20162;-74
2021/08/29 13:22:35;;;;;;;5.53;2.17;;;;;;;;;;5074176;28;20034;-73
2021/08/29 13:25:21;;;;;;;3.85;2.03;;;;;;;;;;5074423;28;20392;-73
2021/08/29 13:27:49;;;;;;;5.82;2.10;;;;;;;;;;5074351;28;20056;-73
2021/08/29 13:30:22;;;;;;;6.78;2.25;;;;;;;;;;5073800;28;20027;-74
2021/08/29 13:32:49;;;;;;;3.47;2.15;;;;;;;;;;5073648;28;20032;-73
2021/08/29 13:35:17;;;;;;;5.65;2.05;;;;;;;;;;5073704;28;20099;-74
2021/08/29 13:37:44;;;;;;;5.90;2.40;;;;;;;;;;5073948;28;20093;-73
2021/08/29 13:40:11;;;;;;;4.15;1.98;;;;;;;;;;5073909;28;20464;-73
2021/08/29 13:42:38;;;;;;;7.95;2.47;;;;;;;;;;5073891;28;20097;-73
2021/08/29 13:45:09;;;;;;;4.95;2.13;;;;;;;;;;5073628;28;20077;-74
2021/08/29 13:47:35;;;;;;;3.83;1.77;;;;;;;;;;5055618;28;20098;-74
2021/08/29 13:50:01;;;;;;;5.30;1.90;;;;;;;;;;5073752;28;20036;-74
2021/08/29 13:52:34;;;;;;;3.33;1.88;;;;;;;;;;5073739;28;20025;-73
2021/08/29 13:55:00;;;;;;;6.07;2.35;;;;;;;;;;5073899;28;20542;-74
2021/08/29 13:57:27;;;;;;;7.95;2.55;;;;;;;;;;5074019;28;20028;-73
2021/08/29 13:59:53;;;;;;;4.80;2.10;;;;;;;;;;5073665;28;20024;-73
2021/08/29 14:02:19;;;;;;;4.68;2.10;;;;;;;;;;5073621;28;20021;-74
2021/08/29 14:04:46;;;;;;;5.35;2.42;;;;;;;;;;5073250;28;20078;-73
2021/08/29 14:07:12;;;;;;;8.40;2.70;;;;;;;;;;5055746;28;20025;-73
2021/08/29 14:09:38;;;;;;;4.85;2.50;;;;;;;;;;5074635;28;20035;-73
2021/08/29 14:12:05;;;;;;;7.93;2.25;;;;;;;;;;5074149;28;20028;-73
2021/08/29 14:14:35;;;;;;;3.88;2.08;;;;;;;;;;5074697;28;20469;-73
2021/08/29 14:17:01;;;;;;;6.95;2.35;;;;;;;;;;5056288;28;20021;-74
2021/08/29 14:19:28;;;;;;;5.38;2.15;;;;;;;;;;5073808;28;20517;-74
2021/08/29 14:21:54;;;;;;;9.35;2.67;;;;;;;;;;5073976;28;20017;-74
2021/08/29 14:24:20;;;;;;;6.47;2.53;;;;;;;;;;5074052;28;20035;-74
2021/08/29 14:26:46;;;;;;;6.07;2.17;;;;;;;;;;5074160;28;20073;-74
2021/08/29 14:29:12;;;;;;;7.22;2.22;;;;;;;;;;5074090;28;20116;-74
2021/08/29 14:31:38;;;;;;;5.35;2.17;;;;;;;;;;5074014;28;20025;-74
2021/08/29 14:34:04;;;;;;;3.97;1.88;;;;;;;;;;5073850;28;20032;-74
2021/08/29 14:36:30;;;;;;;3.55;1.75;;;;;;;;;;5074590;28;20016;-73
2021/08/29 14:38:56;;;;;;;8.02;2.30;;;;;;;;;;5073715;28;20189;-73
2021/08/29 14:41:22;;;;;;;5.20;2.70;;;;;;;;;;5073975;28;20055;-73